Terminal Aerodrome Forecast
Issued by NWS Upton, NY

Current Version | Previous Version | Text Only | Print | Product List | Glossary On
Versions: 1 2 3 4 5 6 7 8 9 10 11 12 13 14 15 16 17 18 19 20 21 22 23 24 25 26 27 28
000 FTUS41 KOKX 012300 TAFISP TAF KISP 012334Z 0200/0224 20007KT P6SM SCT040 SCT080 FM020300 21006KT P6SM FEW015 SCT040 BKN150 FM020700 VRB03KT 5SM BR SCT008 SCT015 BKN150 TEMPO 0209/0213 3SM BR BKN008 FM021400 23006KT P6SM FEW020 SCT040 FM021800 20010KT P6SM SCT050=

USA.gov is the U.S. government's official web portal to all federal, state and local government web resources and services.